Kodiak, AK (99615)

10:14 AM AKDT on August 27, 2016 (GMT -0800)
NOS_NWLON | | Change Station

Elev 0 ft 57.73 °N, 152.51 °W | Updated 38 minutes ago

Partly Cloudy
Partly Cloudy
68 °F
Feels Like 68 °F
N
3
Wind Variable Wind from NNE
Gusts 23.0 mph

Today
High -- | Low -- °F
--% Chance of Precip.
Yesterday
High -- | Low -- °F
Precip. -- in
Pressure 30.09 in
Visibility 10.0 miles
Clouds Few 12000 ft
Dew Point Not available.
Humidity Not available.
Rainfall in
Snow Depth Not available.
7:01 AM 9:19 PM
Waning Crescent, 22% visible
METAR PADQ 271753Z 30009KT 10SM FEW120 19/10 A3009 RMK AO2 SLP189 T01940100 10194 20161 50000
Pressure 30.09 in
Visibility 10.0 miles
Clouds Few 12000 ft
Dew Point Not available.
Humidity Not available.
Rainfall in
Snow Depth Not available.
7:01 AM 9:19 PM
Waning Crescent, 22% visible
METAR PADQ 271753Z 30009KT 10SM FEW120 19/10 A3009 RMK AO2 SLP189 T01940100 10194 20161 50000

10-Day Weather Forecast

Almanac

Astronomy

Aug. 27, 2016 Rise Set
Actual Time
Civil Twilight
Nautical Twilight
Astronomical Twilight
Moon
Length of Visible Light
Length of Day
Tomorrow will be .
, % of the Moon is Illuminated

Today's Extremes

State Highs State Lows

Community

WunderPhotos

Upload Photos

1,935,396 photos uploaded!

WunderBlog® & News

Nearby

Air Quality

  Air Quality AQ Index Pollutant
Not available.

Snow Depth

Station Depth Elevation

Earthquake Activity

City Distance Mag. Time & Date
Minimum magnitude displayed is 2.5.

Coastal Water Temperatures

Place Temperature

Stations

Nearby Weather Stations

Station Location Temp. Windchill Dew Point Humidity Wind Precip. Elev Updated Type
                   

Watches & Warnings

There are currently no watches in effect.